Terminal Aerodrome Forecast
Issued by NWS Goodland, KS

Home | Current Version | Previous Version | Text Only | Print | Product List | Glossary On
Versions: 1 2 3 4 5 6 7 8 9 10 11 12 13 14 15 16 17 18
920
FTUS43 KGLD 261143 AAB
TAFGLD
TAF AMD
KGLD 261143Z 2612/2712 09007KT 1/4SM FG VV002
     FM261700 07007KT 5SM -SHRA BR OVC008
     FM261800 05009KT 6SM -SHRA VCTS OVC030CB
     FM270000 VRB05KT P6SM SCT020 OVC050
     FM270600 25006KT 6SM BR SCT140=

USA.gov is the U.S. government's official web portal to all federal, state and local government web resources and services.